.
WxDataArchive / Data Records for 2006-03-14
2006-03-13 March 2006 2006-03-15

Data Records for Tuesday, 14 March 2006

Time	Temp	Chill	HIndex	Humid	Dewpt	 Wind 	HiWind	WindDir	Rain 	Barom 
-----	----	-----	------	-----	-----	------	------	-------	-----	----- 
00:00	36.0	29.7	36.0	66	25.8	8	19	270	0.00	29.662 
00:05	35.9	30.2	35.9	65	25.3	7	14	270	0.00	29.662 
00:10	35.9	31.7	35.9	66	25.7	5	11	270	0.00	29.662 
00:15	35.8	31.5	35.8	67	25.9	5	11	270	0.00	29.661 
00:20	35.8	30.8	35.8	66	25.6	6	17	270	0.00	29.661 
00:25	35.6	31.3	35.6	67	25.7	5	11	270	0.00	29.661 
00:30	35.6	31.3	35.6	66	25.4	5	12	270	0.00	29.664 
00:35	35.5	30.4	35.5	65	24.9	6	14	270	0.00	29.664 
00:40	35.5	31.2	35.5	65	24.9	5	12	270	0.00	29.664 
00:45	35.3	29.5	35.3	65	24.7	7	15	270	0.00	29.675 
00:50	35.3	31.0	35.3	66	25.1	5	13	270	0.00	29.675 
00:55	35.3	30.2	35.3	65	24.7	6	12	270	0.00	29.675 
01:00	35.2	29.4	35.2	65	24.6	7	18	270	0.00	29.680 
01:05	35.2	30.8	35.2	65	24.6	5	12	270	0.00	29.680 
01:10	35.2	30.8	35.2	66	25.0	5	10	270	0.00	29.680 
01:15	35.0	30.6	35.0	66	24.8	5	15	270	0.00	29.681 
01:20	34.9	29.7	34.9	66	24.7	6	15	270	0.00	29.681 
01:25	34.7	30.2	34.7	67	24.9	5	13	270	0.00	29.681 
01:30	34.7	28.8	34.7	67	24.9	7	20	270	0.00	29.692 
01:35	34.4	29.1	34.4	67	24.6	6	11	270	0.00	29.692 
01:40	34.4	29.9	34.4	67	24.6	5	14	270	0.00	29.692 
01:45	34.3	29.8	34.3	67	24.5	5	15	270	0.00	29.696 
01:50	34.1	29.5	34.1	67	24.3	5	13	270	0.00	29.696 
01:55	34.0	29.4	34.0	68	24.6	5	22	270	0.00	29.696 
02:00	33.8	29.2	33.8	68	24.4	5	13	270	0.00	29.697 
02:05	33.7	29.1	33.7	68	24.3	5	12	270	0.00	29.697 
02:10	33.5	28.0	33.5	68	24.1	6	16	270	0.00	29.697 
02:15	33.5	29.8	33.5	69	24.4	4	9	270	0.00	29.703 
02:20	33.4	28.7	33.4	69	24.3	5	11	270	0.00	29.703 
02:25	33.4	28.7	33.4	69	24.3	5	15	270	0.00	29.703 
02:30	33.2	28.5	33.2	69	24.2	5	15	270	0.00	29.703 
02:35	33.2	26.9	33.2	68	23.8	7	15	270	0.00	29.703 
02:40	33.2	27.7	33.2	68	23.8	6	16	270	0.00	29.703 
02:45	33.1	26.8	33.1	68	23.7	7	18	270	0.00	29.705 
02:50	32.9	28.1	32.9	68	23.5	5	16	270	0.00	29.705 
02:55	32.8	28.0	32.8	69	23.8	5	13	270	0.00	29.705 
03:00	32.8	29.0	32.8	69	23.8	4	10	270	0.00	29.704 
03:05	32.8	29.0	32.8	69	23.8	4	11	270	0.00	29.704 
03:10	32.7	27.1	32.7	69	23.7	6	11	270	0.00	29.704 
03:15	32.7	27.1	32.7	69	23.7	6	17	270	0.00	29.706 
03:20	32.5	27.7	32.5	70	23.8	5	20	270	0.00	29.706 
03:25	32.5	27.7	32.5	70	23.8	5	10	270	0.00	29.706 
03:30	32.4	28.5	32.4	69	23.4	4	13	270	0.00	29.706 
03:35	32.4	26.7	32.4	67	22.7	6	16	270	0.00	29.706 
03:40	32.2	28.3	32.2	68	22.8	4	13	270	0.00	29.706 
03:45	32.1	26.3	32.1	67	22.4	6	13	270	0.00	29.709 
03:50	32.1	28.2	32.1	68	22.7	4	9	270	0.00	29.709 
03:55	32.1	28.2	32.1	68	22.7	4	10	270	0.00	29.709 
04:00	32.1	27.2	32.1	69	23.1	5	11	270	0.00	29.714 
04:05	32.1	26.3	32.1	68	22.7	6	13	270	0.00	29.714 
04:10	32.1	25.6	32.1	69	23.1	7	24	270	0.00	29.714 
04:15	32.1	27.2	32.1	69	23.1	5	16	270	0.00	29.719 
04:20	31.9	27.0	31.9	69	22.9	5	18	270	0.00	29.719 
04:25	31.9	27.0	31.9	70	23.2	5	17	270	0.00	29.719 
04:30	31.8	27.8	31.8	70	23.2	4	11	270	0.00	29.724 
04:35	31.8	27.8	31.8	71	23.5	4	9	270	0.00	29.724 
04:40	31.8	27.8	31.8	72	23.8	4	10	270	0.00	29.724 
04:45	31.8	27.8	31.8	73	24.1	4	12	270	0.00	29.735 
04:50	31.6	26.6	31.6	72	23.6	5	19	270	0.00	29.735 
04:55	31.3	27.3	31.3	70	22.7	4	10	270	0.00	29.735 
05:00	31.2	26.1	31.2	71	22.9	5	13	270	0.00	29.742 
05:05	31.0	25.9	31.0	72	23.1	5	14	270	0.00	29.742 
05:10	30.9	24.9	30.9	73	23.3	6	15	270	0.00	29.742 
05:15	30.6	23.8	30.6	72	22.7	7	19	270	0.00	29.759 
05:20	30.3	23.4	30.3	73	22.7	7	20	270	0.00	29.759 
05:25	30.1	24.8	30.1	74	22.8	5	15	270	0.00	29.759 
05:30	29.8	22.8	29.8	73	22.2	7	14	270	0.00	29.774 
05:35	29.7	22.7	29.7	74	22.4	7	19	270	0.00	29.774 
05:40	29.5	24.1	29.5	74	22.3	5	12	270	0.00	29.774 
05:45	29.5	23.3	29.5	73	21.9	6	17	270	0.00	29.777 
05:50	29.5	23.3	29.5	73	21.9	6	17	270	0.00	29.777 
05:55	29.5	24.1	29.5	74	22.3	5	14	270	0.00	29.777 
06:00	29.3	23.0	29.3	74	22.1	6	14	270	0.00	29.779 
06:05	29.3	23.9	29.3	75	22.4	5	14	270	0.00	29.779 
06:10	29.3	23.0	29.3	75	22.4	6	15	270	0.00	29.779 
06:15	29.3	23.9	29.3	74	22.1	5	15	270	0.00	29.798 
06:20	29.1	23.7	29.1	74	21.9	5	19	270	0.00	29.798 
06:25	29.1	24.7	29.1	73	21.5	4	9	270	0.00	29.798 
06:30	29.1	22.8	29.1	73	21.5	6	17	270	0.00	29.803 
06:35	29.1	24.7	29.1	74	21.9	4	11	270	0.00	29.803 
06:40	29.1	29.1	29.1	75	22.2	3	7	270	0.00	29.803 
06:45	29.1	23.7	29.1	75	22.2	5	11	270	0.00	29.810 
06:50	29.1	24.7	29.1	76	22.5	4	10	270	0.00	29.810 
06:55	29.1	24.7	29.1	77	22.8	4	9	270	0.00	29.810 
07:00	29.1	23.7	29.1	75	22.2	5	14	270	0.00	29.813 
07:05	29.1	24.7	29.1	76	22.5	4	9	270	0.00	29.813 
07:10	29.1	24.7	29.1	76	22.5	4	10	270	0.00	29.813 
07:15	29.1	29.1	29.1	77	22.8	3	9	270	0.00	29.828 
07:20	29.0	24.6	29.0	77	22.7	4	11	270	0.00	29.828 
07:25	29.0	24.6	29.0	78	23.0	4	13	270	0.00	29.828 
07:30	29.0	23.6	29.0	78	23.0	5	12	270	0.00	29.834 
07:35	29.0	24.6	29.0	80	23.6	4	11	270	0.00	29.834 
07:40	29.0	23.6	29.0	79	23.3	5	13	270	0.00	29.834 
07:45	29.0	23.6	29.0	80	23.6	5	12	270	0.00	29.838 
07:50	28.8	22.4	28.8	80	23.4	6	16	270	0.00	29.838 
07:55	29.0	23.6	29.0	81	23.9	5	12	270	0.00	29.838 
08:00	29.0	24.6	29.0	82	24.2	4	11	270	0.00	29.847 
08:05	29.1	24.7	29.1	82	24.3	4	11	270	0.00	29.847 
08:10	29.1	24.7	29.1	82	24.3	4	10	270	0.00	29.847 
08:15	29.1	23.7	29.1	80	23.7	5	17	270	0.00	29.851 
08:20	29.3	23.0	29.3	79	23.6	6	13	270	0.00	29.851 
08:25	29.4	29.4	29.4	80	24.0	3	10	270	0.00	29.851 
08:30	29.5	24.1	29.5	78	23.5	5	10	270	0.00	29.864 
08:35	29.7	24.4	29.7	78	23.7	5	11	270	0.00	29.864 
08:40	29.8	24.5	29.8	77	23.5	5	9	270	0.00	29.864 
08:45	29.8	23.6	29.8	74	22.5	6	15	270	0.00	29.867 
08:50	30.1	25.9	30.1	75	23.2	4	10	270	0.00	29.867 
08:55	30.1	24.0	30.1	73	22.5	6	16	270	0.00	29.867 
09:00	30.4	25.2	30.4	72	22.5	5	11	270	0.00	29.871 
09:05	30.9	26.8	30.9	72	23.0	4	10	270	0.00	29.871 
09:10	30.9	24.9	30.9	69	21.9	6	11	270	0.00	29.871 
09:15	31.3	26.3	31.3	68	22.0	5	13	270	0.00	29.879 
09:20	31.8	25.3	31.8	66	21.8	7	16	270	0.00	29.879 
09:25	32.1	27.2	32.1	65	21.7	5	14	270	0.00	29.879 
09:30	32.4	26.7	32.4	66	22.3	6	17	270	0.00	29.882 
09:35	31.9	26.1	31.9	64	21.1	6	12	270	0.00	29.882 
09:40	31.9	26.1	31.9	63	20.8	6	13	270	0.00	29.882 
09:45	32.4	27.5	32.4	63	21.2	5	13	270	0.00	29.882 
09:50	33.1	29.3	33.1	62	21.5	4	9	270	0.00	29.882 
09:55	33.1	27.5	33.1	60	20.7	6	13	270	0.00	29.882 
10:00	33.1	29.3	33.1	62	21.5	4	11	270	0.00	29.884 
10:05	34.0	29.4	34.0	61	22.0	5	15	270	0.00	29.884 
10:10	34.0	30.4	34.0	58	20.8	4	8	270	0.00	29.884 
10:15	34.0	28.6	34.0	59	21.2	6	11	270	0.00	29.894 
10:20	33.8	28.4	33.8	57	20.2	6	14	270	0.00	29.894 
10:25	34.1	29.5	34.1	58	20.9	5	13	270	0.00	29.894 
10:30	34.7	30.2	34.7	61	22.6	5	15	270	0.00	29.896 
10:35	34.9	28.4	34.9	58	21.6	8	22	270	0.00	29.896 
10:40	35.2	30.8	35.2	59	22.3	5	12	270	0.00	29.896 
10:45	35.0	30.6	35.0	59	22.1	5	18	270	0.00	29.896 
10:50	35.2	30.8	35.2	58	21.9	5	12	270	0.00	29.896 
10:55	35.2	30.0	35.2	55	20.7	6	13	270	0.00	29.896 
11:00	35.6	31.3	35.6	57	21.9	5	10	270	0.00	29.896 
11:05	36.0	30.3	36.0	55	21.4	7	16	270	0.00	29.896 
11:10	36.5	32.4	36.5	56	22.3	5	12	270	0.00	29.896 
11:15	36.5	31.6	36.5	54	21.5	6	16	270	0.00	29.902 
11:20	36.9	32.8	36.9	58	23.5	5	13	270	0.00	29.902 
11:25	36.8	31.9	36.8	55	22.2	6	16	270	0.00	29.902 
11:30	37.5	34.4	37.5	59	24.5	4	10	270	0.00	29.903 
11:35	37.8	33.9	37.8	55	23.1	5	13	270	0.00	29.903 
11:40	37.5	32.8	37.5	55	22.8	6	11	270	0.00	29.903 
11:45	38.2	34.4	38.2	54	23.0	5	15	270	0.00	29.904 
11:50	38.5	34.7	38.5	54	23.3	5	13	270	0.00	29.904 
11:55	39.2	35.5	39.2	53	23.5	5	13	270	0.00	29.904 
12:00	39.2	36.4	39.2	50	22.1	4	13	270	0.00	29.909 
12:05	38.9	34.4	38.9	51	22.3	6	13	270	0.00	29.909 
12:10	39.5	35.9	39.5	54	24.2	5	12	270	0.00	29.909 
12:15	39.6	35.3	39.6	54	24.3	6	12	270	0.00	29.908 
12:20	38.6	32.9	38.6	53	23.0	8	18	270	0.00	29.908 
12:25	39.1	34.1	39.1	51	22.5	7	16	270	0.00	29.908 
12:30	39.8	34.9	39.8	55	25.0	7	17	270	0.00	29.909 
12:35	39.9	36.4	39.9	52	23.7	5	9	270	0.00	29.909 
12:40	40.3	36.1	40.3	54	25.0	6	12	270	0.00	29.909 
12:45	40.8	36.7	40.8	50	23.6	6	11	270	0.00	29.909 
12:50	40.3	36.1	40.3	53	24.5	6	14	270	0.00	29.909 
12:55	40.2	36.0	40.2	53	24.5	6	14	270	0.00	29.909 
13:00	41.3	38.0	41.3	52	25.0	5	13	270	0.00	29.909 
13:05	41.2	37.9	41.2	49	23.5	5	11	270	0.00	29.909 
13:10	40.9	37.5	40.9	50	23.7	5	10	270	0.00	29.909 
13:15	41.2	36.6	41.2	47	22.5	7	15	270	0.00	29.909 
13:20	40.9	36.8	40.9	48	22.7	6	12	270	0.00	29.909 
13:25	40.8	37.4	40.8	51	24.1	5	12	270	0.00	29.909 
13:30	41.1	36.5	41.1	47	22.4	7	18	270	0.00	29.905 
13:35	41.2	36.6	41.2	47	22.5	7	21	270	0.00	29.905 
13:40	40.6	37.2	40.6	47	22.0	5	11	270	0.00	29.905 
13:45	41.2	36.0	41.2	48	23.0	8	24	270	0.00	29.908 
13:50	41.9	38.0	41.9	46	22.6	6	18	270	0.00	29.908 
13:55	41.2	37.9	41.2	47	22.5	5	11	270	0.00	29.908 
14:00	42.1	38.3	42.1	44	21.8	6	14	270	0.00	29.907 
14:05	41.1	36.5	41.1	42	19.8	7	13	270	0.00	29.907 
14:10	41.1	37.1	41.1	44	20.9	6	12	270	0.00	29.907 
14:15	41.8	37.9	41.8	44	21.5	6	14	270	0.00	29.910 
14:20	41.5	36.9	41.5	43	20.7	7	20	270	0.00	29.910 
14:25	41.3	37.3	41.3	42	20.0	6	13	270	0.00	29.910 
14:30	41.3	38.0	41.3	44	21.0	5	9	270	0.00	29.913 
14:35	41.8	37.9	41.8	44	21.5	6	13	270	0.00	29.913 
14:40	41.5	36.9	41.5	42	20.1	7	14	270	0.00	29.913 
14:45	40.8	36.1	40.8	44	20.6	7	17	270	0.00	29.922 
14:50	41.2	37.2	41.2	46	22.0	6	17	270	0.00	29.922 
14:55	42.3	37.9	42.3	44	22.0	7	19	270	0.00	29.922 
15:00	42.2	37.8	42.2	38	18.4	7	15	270	0.00	29.920 
15:05	41.9	37.4	41.9	40	19.4	7	18	270	0.00	29.920 
15:10	42.3	37.4	42.3	40	19.7	8	21	270	0.00	29.920 
15:15	42.3	37.9	42.3	39	19.1	7	14	270	0.00	29.919 
15:20	42.3	37.9	42.3	39	19.1	7	15	270	0.00	29.919 
15:25	42.3	37.9	42.3	40	19.7	7	12	270	0.00	29.919 
15:30	42.5	38.7	42.5	42	21.0	6	12	270	0.00	29.925 
15:35	42.3	38.5	42.3	41	20.3	6	15	270	0.00	29.925 
15:40	42.3	37.9	42.3	42	20.9	7	18	270	0.00	29.925 
15:45	42.1	37.7	42.1	41	20.1	7	15	270	0.00	29.926 
15:50	42.1	37.7	42.1	40	19.5	7	20	270	0.00	29.926 
15:55	41.8	36.3	41.8	40	19.3	9	19	270	0.00	29.926 
16:00	42.2	37.8	42.2	42	20.8	7	15	270	0.00	29.931 
16:05	42.3	38.5	42.3	40	19.7	6	14	270	0.00	29.931 
16:10	41.9	38.7	41.9	40	19.4	5	11	270	0.00	29.931 
16:15	42.3	37.9	42.3	38	18.5	7	17	270	0.00	29.935 
16:20	41.9	38.0	41.9	38	18.2	6	14	270	0.00	29.935 
16:25	41.1	37.1	41.1	39	18.1	6	14	270	0.00	29.935 
16:30	40.9	36.8	40.9	41	19.0	6	11	270	0.00	29.939 
16:35	40.9	37.5	40.9	42	19.6	5	9	270	0.00	29.939 
16:40	41.2	36.6	41.2	40	18.7	7	14	270	0.00	29.939 
16:45	42.1	38.9	42.1	41	20.1	5	13	270	0.00	29.943 
16:50	41.9	38.0	41.9	41	19.9	6	14	270	0.00	29.943 
16:55	41.6	37.7	41.6	42	20.2	6	13	270	0.00	29.943 
17:00	41.2	37.9	41.2	41	19.3	5	11	270	0.00	29.944 
17:05	40.6	35.9	40.6	41	18.8	7	17	270	0.00	29.944 
17:10	40.6	36.5	40.6	41	18.8	6	10	270	0.00	29.944 
17:15	40.8	38.2	40.8	44	20.6	4	14	270	0.00	29.949 
17:20	40.9	36.8	40.9	41	19.0	6	13	270	0.00	29.949 
17:25	40.5	35.7	40.5	41	18.7	7	17	270	0.00	29.949 
17:30	40.2	36.0	40.2	43	19.5	6	13	270	0.00	29.960 
17:35	40.2	35.4	40.2	41	18.4	7	19	270	0.00	29.960 
17:40	40.1	35.3	40.1	41	18.3	7	16	270	0.00	29.960 
17:45	39.9	35.6	39.9	43	19.2	6	18	270	0.00	29.963 
17:50	39.8	36.2	39.8	42	18.6	5	14	270	0.00	29.963 
17:55	39.5	36.7	39.5	43	18.9	4	10	292	0.00	29.963 
18:00	39.3	36.5	39.3	45	19.8	4	8	270	0.00	29.971 
18:05	39.1	35.4	39.1	43	18.5	5	12	270	0.00	29.971 
18:10	38.8	35.9	38.8	43	18.2	4	10	270	0.00	29.971 
18:15	38.6	34.8	38.6	44	18.6	5	12	270	0.00	29.977 
18:20	38.5	34.7	38.5	44	18.5	5	11	270	0.00	29.977 
18:25	38.5	34.7	38.5	43	18.0	5	17	270	0.00	29.977 
18:30	38.5	34.0	38.5	43	18.0	6	12	270	0.00	29.980 
18:35	38.2	35.2	38.2	43	17.7	4	10	270	0.00	29.980 
18:40	38.0	33.4	38.0	41	16.4	6	14	270	0.00	29.980 
18:45	37.9	32.6	37.9	39	15.2	7	14	270	0.00	29.990 
18:50	37.8	33.1	37.8	40	15.7	6	14	270	0.00	29.990 
18:55	37.5	33.5	37.5	41	16.0	5	11	270	0.00	29.990 
19:00	37.2	34.1	37.2	42	16.2	4	10	270	0.00	29.994 
19:05	37.2	34.1	37.2	42	16.2	4	12	270	0.00	29.994 
19:10	37.2	33.2	37.2	42	16.2	5	15	270	0.00	29.994 
19:15	37.0	33.9	37.0	43	16.6	4	11	270	0.00	29.996 
19:20	37.0	32.9	37.0	42	16.1	5	13	270	0.00	29.996 
19:25	36.9	33.7	36.9	43	16.5	4	13	270	0.00	29.996 
19:30	36.8	33.6	36.8	44	17.0	4	7	270	0.00	29.998 
19:35	36.6	33.4	36.6	44	16.8	4	8	270	0.00	29.998 
19:40	36.5	33.3	36.5	44	16.7	4	10	270	0.00	29.998 
19:45	36.5	32.4	36.5	44	16.7	5	10	270	0.00	30.005 
19:50	36.5	36.5	36.5	44	16.7	3	10	270	0.00	30.005 
19:55	36.3	36.3	36.3	44	16.5	3	10	270	0.00	30.005 
20:00	36.3	33.0	36.3	43	16.0	4	7	270	0.00	30.006 
20:05	36.3	33.0	36.3	44	16.5	4	10	270	0.00	30.006 
20:10	36.3	36.3	36.3	44	16.5	3	9	270	0.00	30.006 
20:15	36.3	33.0	36.3	44	16.5	4	7	270	0.00	30.009 
20:20	36.3	32.1	36.3	44	16.5	5	12	270	0.00	30.009 
20:25	36.2	36.2	36.2	44	16.4	3	7	270	0.00	30.009 
20:30	36.0	32.7	36.0	45	16.7	4	9	270	0.00	30.008 
20:35	36.0	32.7	36.0	45	16.7	4	11	270	0.00	30.008 
20:40	36.0	36.0	36.0	45	16.7	3	7	270	0.00	30.008 
20:45	35.9	35.9	35.9	46	17.2	3	6	270	0.00	30.011 
20:50	35.9	35.9	35.9	46	17.2	3	9	270	0.00	30.011 
20:55	35.9	35.9	35.9	46	17.2	3	10	270	0.00	30.011 
21:00	35.9	35.9	35.9	46	17.2	3	7	270	0.00	30.014 
21:05	35.9	35.9	35.9	46	17.2	3	6	270	0.00	30.014 
21:10	35.9	32.6	35.9	46	17.2	4	10	270	0.00	30.014 
21:15	35.8	35.8	35.8	47	17.6	3	5	270	0.00	30.018 
21:20	35.8	32.5	35.8	47	17.6	4	7	270	0.00	30.018 
21:25	35.8	35.8	35.8	47	17.6	3	7	270	0.00	30.018 
21:30	35.6	35.6	35.6	48	17.9	3	6	270	0.00	30.021 
21:35	35.3	35.3	35.3	48	17.6	3	5	270	0.00	30.021 
21:40	35.3	35.3	35.3	48	17.6	3	10	248	0.00	30.021 
21:45	35.2	35.2	35.2	49	18.0	3	6	248	0.00	30.022 
21:50	35.0	35.0	35.0	50	18.3	3	6	270	0.00	30.022 
21:55	35.0	35.0	35.0	50	18.3	3	10	248	0.00	30.022 
22:00	34.9	34.9	34.9	51	18.6	3	7	270	0.00	30.025 
22:05	34.7	34.7	34.7	51	18.4	2	6	248	0.00	30.025 
22:10	34.6	34.6	34.6	52	18.8	2	5	270	0.00	30.025 
22:15	34.4	34.4	34.4	53	19.1	2	7	270	0.00	30.024 
22:20	34.6	31.1	34.6	53	19.2	4	9	270	0.00	30.024 
22:25	34.9	31.4	34.9	53	19.5	4	10	270	0.00	30.024 
22:30	35.0	30.6	35.0	52	19.2	5	18	270	0.00	30.022 
22:35	35.0	31.5	35.0	52	19.2	4	11	270	0.00	30.022 
22:40	35.0	35.0	35.0	52	19.2	3	9	270	0.00	30.022 
22:45	35.0	31.5	35.0	53	19.6	4	8	270	0.00	30.024 
22:50	35.2	30.8	35.2	53	19.8	5	13	270	0.00	30.024 
22:55	35.3	31.9	35.3	54	20.3	4	16	270	0.00	30.024 
23:00	35.6	31.3	35.6	55	21.0	5	11	270	0.00	30.025 
23:05	35.9	31.7	35.9	55	21.3	5	14	270	0.00	30.025 
23:10	35.8	32.5	35.8	57	22.1	4	11	270	0.00	30.025 
23:15	35.6	35.6	35.6	57	21.9	3	7	270	0.00	30.021 
23:20	35.6	35.6	35.6	57	21.9	3	7	270	0.00	30.021 
23:25	35.5	35.5	35.5	57	21.8	3	9	270	0.00	30.021 
23:30	35.5	32.1	35.5	58	22.2	4	11	270	0.00	30.025 
23:35	35.6	35.6	35.6	58	22.3	3	7	270	0.00	30.025 
23:40	35.5	35.5	35.5	58	22.2	3	7	270	0.00	30.025 
23:45	35.5	32.1	35.5	58	22.2	4	9	270	0.00	30.027 
23:50	35.5	35.5	35.5	58	22.2	2	4	270	0.00	30.027 
23:55	35.6	35.6	35.6	58	22.3	3	7	270	0.00	30.027 

CoCoRaHS
IN-AL-39
A2 Web Hosting
Creative Commons License
GoDaddy
Look for:

loaded 2017-10-19 19:58:26 • last modified 2010-11-18 10:43:29
Privacy PolicyDisclaimer
• wx.awcolley.com is powered by PmWiki v.2002016 •
• all content (unless otherwise noted) © 2017 A W Colley